Terminal Aerodrome Forecast
Issued by NWS

Home | Current Version | Previous Version | Text Only | Print | Product List | Glossary On
Versions: 1 2 3 4 5 6 7 8 9 10 11 12 13 14 15 16 17 18 19
742
FTUS41 KCAR 071139
TAFBHB
TAF
KBHB 071139Z 0712/0812 VRB03KT P6SM BKN020 OVC040
      TEMPO 0712/0713 3SM -SN
     FM071300 VRB03KT 2SM -SN OVC018
     FM071700 18004KT P6SM VCSH OVC025=

USA.gov is the U.S. government's official web portal to all federal, state and local government web resources and services.